createdAt,value
2023-03-16T00:03:21.525Z,98319.53
2023-03-16T00:08:23.149Z,98320.56
2023-03-16T00:13:25.202Z,98319.31
2023-03-16T00:18:28.898Z,98326.75
2023-03-16T00:23:35.515Z,98324.44
2023-03-16T00:28:37.128Z,98324.03
2023-03-16T00:33:39.445Z,98337.38
2023-03-16T00:38:45.688Z,98329.50
2023-03-16T00:43:48.759Z,98333.72
2023-03-16T00:48:51.358Z,98328.44
2023-03-16T00:53:52.792Z,98336.94
2023-03-16T00:58:57.594Z,98342.13
2023-03-16T01:03:59.779Z,98337.47
2023-03-16T01:09:02.551Z,98353.47
2023-03-16T01:14:04.852Z,98352.41
2023-03-16T01:19:06.365Z,98358.81
2023-03-16T01:24:09.118Z,98355.78
2023-03-16T01:29:12.308Z,98361.38
2023-03-16T01:34:17.803Z,98367.75
2023-03-16T01:39:19.959Z,98363.53
2023-03-16T01:44:35.065Z,98367.66
2023-03-16T01:49:40.494Z,98371.97
2023-03-16T01:54:57.191Z,98356.22
2023-03-16T02:00:10.947Z,98361.25
2023-03-16T02:05:33.103Z,98353.59
2023-03-16T02:10:37.266Z,98356.41
2023-03-16T02:15:39.022Z,98354.00
2023-03-16T02:20:53.408Z,98355.78
2023-03-16T02:26:03.136Z,98363.53
2023-03-16T02:31:07.441Z,98358.09
2023-03-16T02:36:09.623Z,98360.63
2023-03-16T02:41:18.708Z,98362.22
2023-03-16T02:46:26.680Z,98363.75
2023-03-16T02:51:28.907Z,98364.72
2023-03-16T02:56:30.901Z,98372.38
2023-03-16T03:01:34.676Z,98368.78
2023-03-16T03:06:36.207Z,98365.25
2023-03-16T03:11:38.365Z,98366.28
2023-03-16T03:16:40.206Z,98370.72
2023-03-16T03:21:41.779Z,98374.25
2023-03-16T03:26:44.946Z,98374.38
2023-03-16T03:31:52.139Z,98382.47
2023-03-16T03:36:53.731Z,98385.28
2023-03-16T03:41:55.656Z,98388.13
2023-03-16T03:46:58.192Z,98390.22
2023-03-16T03:52:04.838Z,98394.75
2023-03-16T03:57:06.434Z,98396.63
2023-03-16T04:02:09.396Z,98392.53
2023-03-16T04:07:16.520Z,98390.81
2023-03-16T04:12:19.562Z,98403.13
2023-03-16T04:17:22.237Z,98397.78
2023-03-16T04:22:25.046Z,98393.44
2023-03-16T04:27:26.535Z,98396.06
2023-03-16T04:32:28.074Z,98391.69
2023-03-16T04:37:31.043Z,98395.16
2023-03-16T04:42:32.520Z,98392.31
2023-03-16T04:47:34.555Z,98384.53
2023-03-16T04:52:36.598Z,98387.28
2023-03-16T04:57:38.153Z,98392.53
2023-03-16T05:02:39.640Z,98388.31
2023-03-16T05:07:45.103Z,98383.91
2023-03-16T05:12:46.915Z,98396.06
2023-03-16T05:17:48.902Z,98391.50
2023-03-16T05:22:52.210Z,98383.09
2023-03-16T05:27:59.245Z,98393.38
2023-03-16T05:33:23.413Z,98386.34
2023-03-16T05:38:31.799Z,98398.41
2023-03-16T05:43:34.279Z,98399.06
2023-03-16T05:48:35.980Z,98398.00
2023-03-16T05:53:38.362Z,98403.06
2023-03-16T05:58:47.022Z,98411.56
2023-03-16T06:03:50.037Z,98406.22
2023-03-16T06:08:55.042Z,98413.97
2023-03-16T06:14:00.858Z,98416.06
2023-03-16T06:19:02.532Z,98415.22
2023-03-16T06:24:07.618Z,98419.22
2023-03-16T06:29:09.028Z,98422.19
2023-03-16T06:34:12.523Z,98417.13
2023-03-16T06:39:14.903Z,98425.09
2023-03-16T06:44:22.351Z,98422.81
2023-03-16T06:49:43.182Z,98425.53
2023-03-16T06:54:52.728Z,98437.28
2023-03-16T06:59:55.068Z,98433.28
2023-03-16T07:04:56.466Z,98437.88
2023-03-16T07:09:58.756Z,98438.19
2023-03-16T07:15:01.073Z,98429.44
2023-03-16T07:20:10.529Z,98446.53
2023-03-16T07:25:13.880Z,98441.09
2023-03-16T07:30:20.314Z,98453.38
2023-03-16T07:35:23.914Z,98452.84
2023-03-16T07:40:25.592Z,98448.88
2023-03-16T07:45:31.725Z,98436.75
2023-03-16T07:50:33.336Z,98433.53
2023-03-16T07:55:36.544Z,98446.00
2023-03-16T08:00:39.950Z,98442.69
2023-03-16T08:05:41.668Z,98452.53
2023-03-16T08:10:49.880Z,98456.06
2023-03-16T08:16:03.461Z,98452.81
2023-03-16T08:21:10.578Z,98461.72
2023-03-16T08:26:12.148Z,98462.81
2023-03-16T08:31:15.227Z,98461.84
2023-03-16T08:36:25.385Z,98473.41
2023-03-16T08:41:30.805Z,98475.78
2023-03-16T08:46:35.592Z,98482.50
2023-03-16T08:51:37.616Z,98480.56
2023-03-16T08:56:39.109Z,98477.94
2023-03-16T09:01:41.220Z,98482.22
2023-03-16T09:06:42.634Z,98481.13
2023-03-16T09:11:44.353Z,98483.59
2023-03-16T09:16:45.870Z,98487.78
2023-03-16T09:21:47.540Z,98488.34
2023-03-16T09:26:49.086Z,98495.94
2023-03-16T09:31:50.735Z,98496.59
2023-03-16T09:36:53.642Z,98496.81
2023-03-16T09:42:08.458Z,98487.88
2023-03-16T09:47:12.110Z,98488.91
2023-03-16T09:52:30.194Z,98481.03
2023-03-16T09:57:35.927Z,98478.31
2023-03-16T10:02:51.200Z,98485.22
2023-03-16T10:08:04.957Z,98478.16
2023-03-16T10:13:17.730Z,98475.53
2023-03-16T10:18:24.691Z,98484.34
2023-03-16T10:23:26.778Z,98480.19
2023-03-16T10:28:32.346Z,98489.44
2023-03-16T10:33:36.448Z,98482.66
2023-03-16T10:38:40.452Z,98480.88
2023-03-16T10:43:42.140Z,98478.09
2023-03-16T10:49:01.276Z,98471.69
2023-03-16T10:54:19.767Z,98475.50
2023-03-16T10:59:27.694Z,98469.50
2023-03-16T11:04:33.850Z,98471.47
2023-03-16T11:09:37.052Z,98462.69
2023-03-16T11:14:38.530Z,98457.50
2023-03-16T11:19:52.764Z,98443.94
2023-03-16T11:25:04.114Z,98431.25
2023-03-16T11:30:14.958Z,98437.97
2023-03-16T11:35:23.646Z,98431.09
2023-03-16T11:40:53.818Z,98433.19
2023-03-16T11:46:20.553Z,98431.78
2023-03-16T11:51:43.178Z,98421.44
2023-03-16T11:56:50.559Z,98416.91
2023-03-16T12:02:00.204Z,98423.34
2023-03-16T12:07:15.903Z,98416.47
2023-03-16T12:12:23.435Z,98402.06
2023-03-16T12:17:31.944Z,98403.75
2023-03-16T12:22:39.539Z,98393.66
2023-03-16T12:27:42.794Z,98388.75
2023-03-16T12:32:53.576Z,98392.25
2023-03-16T12:38:22.465Z,98378.81
2023-03-16T12:43:31.784Z,98385.22
2023-03-16T12:48:40.506Z,98382.94
2023-03-16T12:53:53.490Z,98375.25
2023-03-16T12:58:57.755Z,98367.06
2023-03-16T13:04:03.405Z,98362.75
2023-03-16T13:09:07.159Z,98347.94
2023-03-16T13:14:12.558Z,98346.31
2023-03-16T13:19:19.762Z,98338.84
2023-03-16T13:24:49.530Z,98327.03
2023-03-16T13:29:58.999Z,98328.41
2023-03-16T13:35:05.254Z,98318.94
2023-03-16T13:40:24.743Z,98327.00
2023-03-16T13:45:33.226Z,98329.81
2023-03-16T13:50:36.100Z,98318.75
2023-03-16T13:55:38.523Z,98306.13
2023-03-16T14:00:43.816Z,98302.13
2023-03-16T14:05:46.072Z,98304.38
2023-03-16T14:10:48.374Z,98299.50
2023-03-16T14:15:50.480Z,98300.44
2023-03-16T14:20:53.783Z,98278.91
2023-03-16T14:25:55.704Z,98286.69
2023-03-16T14:31:10.978Z,98288.81
2023-03-16T14:36:14.970Z,98284.59
2023-03-16T14:41:26.180Z,98283.53
2023-03-16T14:46:31.249Z,98291.75
2023-03-16T14:51:34.770Z,98290.84
2023-03-16T14:56:36.502Z,98287.91
2023-03-16T15:01:38.586Z,98288.16
2023-03-16T15:06:40.514Z,98287.13
2023-03-16T15:11:43.846Z,98274.28
2023-03-16T15:16:46.275Z,98266.09
2023-03-16T15:21:47.687Z,98273.03
2023-03-16T15:26:49.263Z,98264.81
2023-03-16T15:31:53.387Z,98276.59
2023-03-16T15:36:56.186Z,98269.09
2023-03-16T15:41:57.606Z,98268.19
2023-03-16T15:47:00.476Z,98254.47
2023-03-16T15:52:01.994Z,98243.69
2023-03-16T15:57:03.671Z,98241.50
2023-03-16T16:02:25.246Z,98234.72
2023-03-16T16:07:27.243Z,98243.88
2023-03-16T16:12:30.877Z,98246.72
2023-03-16T16:17:46.052Z,98255.75
2023-03-16T16:22:59.587Z,98249.88
2023-03-16T16:28:01.119Z,98256.13
2023-03-16T16:33:03.063Z,98267.38
2023-03-16T16:38:04.488Z,98261.69
2023-03-16T16:43:06.401Z,98260.78
2023-03-16T16:48:28.360Z,98265.69
2023-03-16T16:53:29.938Z,98247.63
2023-03-16T16:58:32.170Z,98249.44
2023-03-16T17:03:33.902Z,98241.66
2023-03-16T17:08:35.312Z,98240.44
2023-03-16T17:13:40.074Z,98249.50
2023-03-16T17:18:42.528Z,98241.38
2023-03-16T17:23:44.554Z,98246.53
2023-03-16T17:28:56.920Z,98245.56
2023-03-16T17:33:58.431Z,98244.44
2023-03-16T17:39:01.995Z,98252.06
2023-03-16T17:44:05.435Z,98239.16
2023-03-16T17:49:19.843Z,98227.88
2023-03-16T17:54:21.435Z,98232.72
2023-03-16T17:59:23.106Z,98221.56
2023-03-16T18:04:25.865Z,98227.69
2023-03-16T18:09:28.599Z,98217.94
2023-03-16T18:14:36.046Z,98200.28
2023-03-16T18:19:37.689Z,98204.72
2023-03-16T18:24:40.014Z,98200.97
2023-03-16T18:29:41.926Z,98194.56
2023-03-16T18:34:43.548Z,98200.69
2023-03-16T18:39:45.406Z,98198.75
2023-03-16T18:44:47.033Z,98199.31
2023-03-16T18:49:52.808Z,98189.00
2023-03-16T18:54:55.559Z,98184.25
2023-03-16T18:59:57.004Z,98189.00
2023-03-16T19:05:01.251Z,98195.00
2023-03-16T19:10:08.483Z,98193.19
2023-03-16T19:15:33.799Z,98183.72
2023-03-16T19:20:35.520Z,98183.16
2023-03-16T19:25:39.731Z,98174.94
2023-03-16T19:30:41.737Z,98172.31
2023-03-16T19:35:51.536Z,98164.22
2023-03-16T19:40:58.934Z,98159.63
2023-03-16T19:46:00.412Z,98156.00
2023-03-16T19:51:02.033Z,98157.38
2023-03-16T19:56:03.743Z,98157.81
2023-03-16T20:01:21.997Z,98157.38
2023-03-16T20:06:24.130Z,98172.25
2023-03-16T20:11:30.031Z,98175.34
2023-03-16T20:16:34.348Z,98157.25
2023-03-16T20:21:36.026Z,98155.00
2023-03-16T20:26:37.523Z,98155.56
2023-03-16T20:31:39.111Z,98156.16
2023-03-16T20:36:40.503Z,98155.28
2023-03-16T20:41:42.416Z,98156.72
2023-03-16T20:46:44.901Z,98150.16
2023-03-16T20:51:46.341Z,98134.00
2023-03-16T20:56:48.038Z,98130.09
2023-03-16T21:01:50.128Z,98141.06
2023-03-16T21:06:51.844Z,98136.34
2023-03-16T21:11:53.372Z,98117.81
2023-03-16T21:16:54.944Z,98118.50
2023-03-16T21:21:56.347Z,98115.97
2023-03-16T21:26:57.789Z,98107.19
2023-03-16T21:31:59.240Z,98110.38
2023-03-16T21:37:00.773Z,98103.69
2023-03-16T21:42:02.175Z,98109.50
2023-03-16T21:47:06.419Z,98111.97
2023-03-16T21:52:30.096Z,98112.25
2023-03-16T21:57:32.228Z,98107.22
2023-03-16T22:02:35.809Z,98111.94
2023-03-16T22:07:37.482Z,98097.19
2023-03-16T22:12:38.906Z,98097.19
2023-03-16T22:17:40.622Z,98080.69
2023-03-16T22:22:42.356Z,98072.75
2023-03-16T22:27:44.006Z,98068.16
2023-03-16T22:32:48.937Z,98062.75
2023-03-16T22:37:50.538Z,98054.84
2023-03-16T22:42:52.010Z,98045.66
2023-03-16T22:47:56.269Z,98038.31
2023-03-16T22:53:00.788Z,98028.31
2023-03-16T22:58:08.363Z,98028.88
2023-03-16T23:03:16.879Z,98021.38
2023-03-16T23:08:22.749Z,98023.75
2023-03-16T23:13:25.425Z,98028.75
2023-03-16T23:18:26.883Z,98037.25
2023-03-16T23:23:28.296Z,98041.41
2023-03-16T23:28:29.718Z,98029.88
2023-03-16T23:33:31.170Z,98023.91
2023-03-16T23:38:32.599Z,98020.13
2023-03-16T23:43:34.443Z,98017.81
2023-03-16T23:48:38.224Z,98006.97
2023-03-16T23:53:40.298Z,98003.34
2023-03-16T23:58:41.865Z,98004.44
